sensor_id;sensor_type;location;lat;lon;timestamp;pressure;altitude;pressure_sealevel;temperature;humidity
32237;BME280;18726;44.732;10.550;2022-11-06T00:01:16;101120.69;;;10.02;100.00
32237;BME280;18726;44.732;10.550;2022-11-06T00:04:19;101124.06;;;9.78;100.00
32237;BME280;18726;44.732;10.550;2022-11-06T00:07:23;101117.56;;;9.91;100.00
32237;BME280;18726;44.732;10.550;2022-11-06T00:10:28;101119.16;;;9.92;100.00
32237;BME280;18726;44.732;10.550;2022-11-06T00:13:33;101114.53;;;9.93;100.00
32237;BME280;18726;44.732;10.550;2022-11-06T00:16:38;101122.00;;;9.75;100.00
32237;BME280;18726;44.732;10.550;2022-11-06T00:19:42;101124.41;;;9.47;100.00
32237;BME280;18726;44.732;10.550;2022-11-06T00:22:46;101124.41;;;9.47;100.00
32237;BME280;18726;44.732;10.550;2022-11-06T00:25:50;101123.69;;;9.29;100.00
32237;BME280;18726;44.732;10.550;2022-11-06T00:28:58;101124.22;;;9.23;100.00
32237;BME280;18726;44.732;10.550;2022-11-06T00:32:02;101118.28;;;9.29;100.00
32237;BME280;18726;44.732;10.550;2022-11-06T00:35:06;101126.59;;;9.54;100.00
32237;BME280;18726;44.732;10.550;2022-11-06T00:38:10;101137.81;;;9.14;100.00
32237;BME280;18726;44.732;10.550;2022-11-06T00:41:15;101141.22;;;9.61;100.00
32237;BME280;18726;44.732;10.550;2022-11-06T00:44:19;101147.41;;;9.41;100.00
32237;BME280;18726;44.732;10.550;2022-11-06T00:47:23;101164.03;;;8.93;100.00
32237;BME280;18726;44.732;10.550;2022-11-06T00:50:26;101160.44;;;9.18;100.00
32237;BME280;18726;44.732;10.550;2022-11-06T00:53:30;101165.75;;;8.97;100.00
32237;BME280;18726;44.732;10.550;2022-11-06T00:56:34;101174.00;;;8.37;100.00
32237;BME280;18726;44.732;10.550;2022-11-06T00:59:37;101193.81;;;7.89;100.00
32237;BME280;18726;44.732;10.550;2022-11-06T01:02:41;101197.09;;;7.69;100.00
32237;BME280;18726;44.732;10.550;2022-11-06T01:05:45;101194.06;;;8.36;100.00
32237;BME280;18726;44.732;10.550;2022-11-06T01:08:49;101187.47;;;8.02;100.00
32237;BME280;18726;44.732;10.550;2022-11-06T01:11:56;101180.59;;;7.79;100.00
32237;BME280;18726;44.732;10.550;2022-11-06T01:15:00;101184.47;;;7.47;100.00
32237;BME280;18726;44.732;10.550;2022-11-06T01:18:04;101183.34;;;7.39;100.00
32237;BME280;18726;44.732;10.550;2022-11-06T01:21:11;101180.97;;;8.03;100.00
32237;BME280;18726;44.732;10.550;2022-11-06T01:24:18;101187.84;;;8.35;100.00
32237;BME280;18726;44.732;10.550;2022-11-06T01:27:22;101181.94;;;8.59;100.00
32237;BME280;18726;44.732;10.550;2022-11-06T01:30:26;101185.13;;;8.53;100.00
32237;BME280;18726;44.732;10.550;2022-11-06T01:33:30;101181.06;;;7.81;100.00
32237;BME280;18726;44.732;10.550;2022-11-06T01:36:33;101180.19;;;7.46;100.00
32237;BME280;18726;44.732;10.550;2022-11-06T01:39:37;101182.94;;;7.24;100.00
32237;BME280;18726;44.732;10.550;2022-11-06T01:42:40;101190.44;;;6.96;100.00
32237;BME280;18726;44.732;10.550;2022-11-06T01:45:47;101183.16;;;6.74;100.00
32237;BME280;18726;44.732;10.550;2022-11-06T01:48:57;101183.34;;;6.77;100.00
32237;BME280;18726;44.732;10.550;2022-11-06T01:52:07;101177.94;;;6.77;100.00
32237;BME280;18726;44.732;10.550;2022-11-06T01:55:21;101183.03;;;7.41;100.00
32237;BME280;18726;44.732;10.550;2022-11-06T01:58:30;101178.25;;;8.12;100.00
32237;BME280;18726;44.732;10.550;2022-11-06T02:01:34;101183.41;;;7.17;100.00
32237;BME280;18726;44.732;10.550;2022-11-06T02:04:42;101174.22;;;6.96;100.00
32237;BME280;18726;44.732;10.550;2022-11-06T02:07:46;101165.50;;;6.99;100.00
32237;BME280;18726;44.732;10.550;2022-11-06T02:10:51;101160.50;;;7.15;100.00
32237;BME280;18726;44.732;10.550;2022-11-06T02:14:13;101153.56;;;8.13;100.00
32237;BME280;18726;44.732;10.550;2022-11-06T02:20:42;101151.47;;;7.67;100.00
32237;BME280;18726;44.732;10.550;2022-11-06T02:27:13;101147.97;;;7.67;100.00
32237;BME280;18726;44.732;10.550;2022-11-06T02:30:18;101155.66;;;8.25;100.00
32237;BME280;18726;44.732;10.550;2022-11-06T02:33:27;101165.41;;;8.35;100.00
32237;BME280;18726;44.732;10.550;2022-11-06T02:36:35;101165.66;;;7.99;100.00
32237;BME280;18726;44.732;10.550;2022-11-06T02:39:42;101169.63;;;8.10;100.00
32237;BME280;18726;44.732;10.550;2022-11-06T02:42:49;101166.06;;;7.49;100.00
32237;BME280;18726;44.732;10.550;2022-11-06T02:46:17;101171.56;;;7.35;100.00
32237;BME280;18726;44.732;10.550;2022-11-06T02:52:53;101177.31;;;8.08;100.00
32237;BME280;18726;44.732;10.550;2022-11-06T02:56:01;101182.97;;;7.80;100.00
32237;BME280;18726;44.732;10.550;2022-11-06T02:59:11;101185.41;;;7.99;100.00
32237;BME280;18726;44.732;10.550;2022-11-06T03:02:20;101196.66;;;7.84;100.00
32237;BME280;18726;44.732;10.550;2022-11-06T03:05:35;101197.66;;;8.05;100.00
32237;BME280;18726;44.732;10.550;2022-11-06T03:08:49;101197.50;;;8.10;100.00
32237;BME280;18726;44.732;10.550;2022-11-06T03:12:03;101196.16;;;7.82;100.00
32237;BME280;18726;44.732;10.550;2022-11-06T03:18:38;101201.59;;;7.34;100.00
32237;BME280;18726;44.732;10.550;2022-11-06T03:28:39;101203.28;;;7.21;100.00
32237;BME280;18726;44.732;10.550;2022-11-06T03:31:57;101207.25;;;7.24;100.00
32237;BME280;18726;44.732;10.550;2022-11-06T03:38:55;101219.50;;;7.21;100.00
32237;BME280;18726;44.732;10.550;2022-11-06T03:42:08;101225.78;;;7.08;100.00
32237;BME280;18726;44.732;10.550;2022-11-06T03:45:18;101218.97;;;7.10;100.00
32237;BME280;18726;44.732;10.550;2022-11-06T03:51:42;101232.28;;;7.07;100.00
32237;BME280;18726;44.732;10.550;2022-11-06T03:55:02;101226.88;;;7.07;100.00
32237;BME280;18726;44.732;10.550;2022-11-06T03:58:18;101223.19;;;7.03;100.00
32237;BME280;18726;44.732;10.550;2022-11-06T04:01:27;101231.00;;;7.04;100.00
32237;BME280;18726;44.732;10.550;2022-11-06T04:04:52;101229.94;;;7.14;100.00
32237;BME280;18726;44.732;10.550;2022-11-06T04:07:58;101232.84;;;7.26;100.00
32237;BME280;18726;44.732;10.550;2022-11-06T04:11:23;101231.88;;;7.22;100.00
32237;BME280;18726;44.732;10.550;2022-11-06T04:14:50;101237.44;;;7.17;100.00
32237;BME280;18726;44.732;10.550;2022-11-06T04:17:55;101236.47;;;7.13;100.00
32237;BME280;18726;44.732;10.550;2022-11-06T04:21:17;101242.78;;;7.08;100.00
32237;BME280;18726;44.732;10.550;2022-11-06T04:47:27;101242.75;;;7.70;100.00
32237;BME280;18726;44.732;10.550;2022-11-06T04:50:37;101238.81;;;7.76;100.00
32237;BME280;18726;44.732;10.550;2022-11-06T04:53:42;101249.38;;;8.12;100.00
32237;BME280;18726;44.732;10.550;2022-11-06T04:56:46;101250.47;;;7.94;100.00
32237;BME280;18726;44.732;10.550;2022-11-06T04:59:50;101253.78;;;7.91;100.00
32237;BME280;18726;44.732;10.550;2022-11-06T05:02:54;101249.47;;;7.82;100.00
32237;BME280;18726;44.732;10.550;2022-11-06T05:05:58;101257.66;;;7.59;100.00
32237;BME280;18726;44.732;10.550;2022-11-06T05:09:01;101257.56;;;7.82;100.00
32237;BME280;18726;44.732;10.550;2022-11-06T05:12:05;101250.53;;;7.32;100.00
32237;BME280;18726;44.732;10.550;2022-11-06T05:15:09;101248.63;;;7.64;100.00
32237;BME280;18726;44.732;10.550;2022-11-06T05:18:12;101250.78;;;7.22;100.00
32237;BME280;18726;44.732;10.550;2022-11-06T05:21:16;101238.97;;;7.09;100.00
32237;BME280;18726;44.732;10.550;2022-11-06T05:24:38;101240.91;;;6.87;100.00
32237;BME280;18726;44.732;10.550;2022-11-06T05:27:41;101238.38;;;6.68;100.00
32237;BME280;18726;44.732;10.550;2022-11-06T05:30:45;101233.44;;;6.48;100.00
32237;BME280;18726;44.732;10.550;2022-11-06T05:33:48;101234.94;;;6.18;100.00
32237;BME280;18726;44.732;10.550;2022-11-06T05:36:51;101242.97;;;5.95;100.00
32237;BME280;18726;44.732;10.550;2022-11-06T05:39:55;101245.56;;;6.00;100.00
32237;BME280;18726;44.732;10.550;2022-11-06T05:42:58;101243.75;;;5.96;100.00
32237;BME280;18726;44.732;10.550;2022-11-06T05:46:02;101253.50;;;7.22;100.00
32237;BME280;18726;44.732;10.550;2022-11-06T05:49:07;101259.16;;;7.74;100.00
32237;BME280;18726;44.732;10.550;2022-11-06T05:52:11;101257.34;;;8.18;100.00
32237;BME280;18726;44.732;10.550;2022-11-06T05:55:14;101266.47;;;8.39;100.00
32237;BME280;18726;44.732;10.550;2022-11-06T05:58:18;101274.78;;;8.42;100.00
32237;BME280;18726;44.732;10.550;2022-11-06T06:01:22;101280.53;;;8.67;100.00
32237;BME280;18726;44.732;10.550;2022-11-06T06:04:25;101288.97;;;8.83;100.00
32237;BME280;18726;44.732;10.550;2022-11-06T06:07:29;101295.19;;;8.83;100.00
32237;BME280;18726;44.732;10.550;2022-11-06T06:10:33;101308.88;;;8.95;100.00
32237;BME280;18726;44.732;10.550;2022-11-06T06:13:36;101320.81;;;8.68;100.00
32237;BME280;18726;44.732;10.550;2022-11-06T06:16:40;101317.00;;;9.04;100.00
32237;BME280;18726;44.732;10.550;2022-11-06T06:19:44;101327.84;;;9.12;100.00
32237;BME280;18726;44.732;10.550;2022-11-06T06:22:55;101325.22;;;8.30;100.00
32237;BME280;18726;44.732;10.550;2022-11-06T06:27:32;101311.91;;;8.59;100.00
32237;BME280;18726;44.732;10.550;2022-11-06T06:30:36;101314.84;;;9.99;100.00
32237;BME280;18726;44.732;10.550;2022-11-06T06:33:41;101328.47;;;11.12;100.00
32237;BME280;18726;44.732;10.550;2022-11-06T06:36:48;101328.16;;;13.21;100.00
32237;BME280;18726;44.732;10.550;2022-11-06T06:39:52;101349.59;;;15.37;100.00
32237;BME280;18726;44.732;10.550;2022-11-06T06:42:56;101367.44;;;17.28;100.00
32237;BME280;18726;44.732;10.550;2022-11-06T06:46:02;101378.88;;;18.63;100.00
32237;BME280;18726;44.732;10.550;2022-11-06T06:49:07;101385.66;;;19.87;80.49
32237;BME280;18726;44.732;10.550;2022-11-06T06:52:11;101384.72;;;21.01;70.96
32237;BME280;18726;44.732;10.550;2022-11-06T06:55:15;101394.16;;;22.39;61.88
32237;BME280;18726;44.732;10.550;2022-11-06T06:58:19;101394.91;;;23.14;60.16
32237;BME280;18726;44.732;10.550;2022-11-06T07:01:23;101398.16;;;24.20;49.32
32237;BME280;18726;44.732;10.550;2022-11-06T07:04:26;101398.31;;;25.00;45.63
32237;BME280;18726;44.732;10.550;2022-11-06T07:07:31;101410.50;;;25.62;43.50
32237;BME280;18726;44.732;10.550;2022-11-06T07:10:34;101410.81;;;26.48;42.34
32237;BME280;18726;44.732;10.550;2022-11-06T07:13:38;101424.44;;;26.75;39.48
32237;BME280;18726;44.732;10.550;2022-11-06T07:16:41;101428.16;;;27.14;41.94
32237;BME280;18726;44.732;10.550;2022-11-06T07:19:44;101424.91;;;27.15;36.21
32237;BME280;18726;44.732;10.550;2022-11-06T07:22:48;101426.38;;;27.20;34.77
32237;BME280;18726;44.732;10.550;2022-11-06T07:25:52;101426.47;;;27.16;37.59
32237;BME280;18726;44.732;10.550;2022-11-06T07:28:59;101427.53;;;28.11;37.72
32237;BME280;18726;44.732;10.550;2022-11-06T07:32:03;101429.81;;;27.91;33.29
32237;BME280;18726;44.732;10.550;2022-11-06T07:35:10;101432.38;;;27.98;33.22
32237;BME280;18726;44.732;10.550;2022-11-06T07:38:13;101421.91;;;27.22;33.62
32237;BME280;18726;44.732;10.550;2022-11-06T07:41:17;101418.09;;;25.77;34.90
32237;BME280;18726;44.732;10.550;2022-11-06T07:44:20;101420.31;;;26.35;34.31
32237;BME280;18726;44.732;10.550;2022-11-06T07:47:23;101422.53;;;25.19;36.40
32237;BME280;18726;44.732;10.550;2022-11-06T07:50:27;101426.16;;;26.40;35.17
32237;BME280;18726;44.732;10.550;2022-11-06T07:53:31;101434.09;;;28.43;33.60
32237;BME280;18726;44.732;10.550;2022-11-06T07:56:35;101431.88;;;30.00;31.19
32237;BME280;18726;44.732;10.550;2022-11-06T07:59:38;101430.97;;;28.41;31.51
32237;BME280;18726;44.732;10.550;2022-11-06T08:02:42;101436.41;;;28.22;33.40
32237;BME280;18726;44.732;10.550;2022-11-06T08:05:46;101437.47;;;30.58;30.51
32237;BME280;18726;44.732;10.550;2022-11-06T08:08:50;101438.59;;;31.91;31.01
32237;BME280;18726;44.732;10.550;2022-11-06T08:11:53;101437.31;;;32.87;26.94
32237;BME280;18726;44.732;10.550;2022-11-06T08:14:57;101436.63;;;32.77;27.28
32237;BME280;18726;44.732;10.550;2022-11-06T08:18:00;101445.06;;;34.76;26.77
32237;BME280;18726;44.732;10.550;2022-11-06T08:21:05;101442.88;;;35.75;25.93
32237;BME280;18726;44.732;10.550;2022-11-06T08:24:09;101448.72;;;35.97;23.57
32237;BME280;18726;44.732;10.550;2022-11-06T08:27:13;101438.03;;;36.89;23.97
32237;BME280;18726;44.732;10.550;2022-11-06T08:30:16;101428.53;;;37.08;25.04
32237;BME280;18726;44.732;10.550;2022-11-06T08:33:21;101438.59;;;38.45;23.83
32237;BME280;18726;44.732;10.550;2022-11-06T08:36:25;101440.72;;;38.39;24.98
32237;BME280;18726;44.732;10.550;2022-11-06T08:39:29;101436.97;;;37.92;21.60
32237;BME280;18726;44.732;10.550;2022-11-06T08:42:33;101438.56;;;38.62;22.25
32237;BME280;18726;44.732;10.550;2022-11-06T08:45:39;101431.69;;;38.35;21.04
32237;BME280;18726;44.732;10.550;2022-11-06T08:48:43;101417.44;;;37.61;21.22
32237;BME280;18726;44.732;10.550;2022-11-06T08:51:46;101422.97;;;38.28;21.45
32237;BME280;18726;44.732;10.550;2022-11-06T08:54:50;101426.25;;;38.90;23.14
32237;BME280;18726;44.732;10.550;2022-11-06T08:57:54;101426.41;;;38.56;20.90
32237;BME280;18726;44.732;10.550;2022-11-06T09:00:57;101436.66;;;38.24;22.20
32237;BME280;18726;44.732;10.550;2022-11-06T09:04:01;101425.31;;;38.70;22.57
32237;BME280;18726;44.732;10.550;2022-11-06T09:07:04;101411.19;;;39.60;21.66
32237;BME280;18726;44.732;10.550;2022-11-06T09:10:08;101421.41;;;40.42;21.32
32237;BME280;18726;44.732;10.550;2022-11-06T09:13:12;101417.69;;;40.66;21.06
32237;BME280;18726;44.732;10.550;2022-11-06T09:16:16;101426.31;;;41.11;20.75
32237;BME280;18726;44.732;10.550;2022-11-06T09:19:20;101413.91;;;41.40;19.41
32237;BME280;18726;44.732;10.550;2022-11-06T09:22:23;101409.25;;;41.83;20.15
32237;BME280;18726;44.732;10.550;2022-11-06T09:25:28;101407.59;;;40.84;20.01
32237;BME280;18726;44.732;10.550;2022-11-06T09:28:31;101409.13;;;41.75;19.54
32237;BME280;18726;44.732;10.550;2022-11-06T09:31:35;101401.66;;;41.72;19.96
32237;BME280;18726;44.732;10.550;2022-11-06T09:34:38;101389.03;;;41.94;19.89
32237;BME280;18726;44.732;10.550;2022-11-06T09:37:43;101395.56;;;40.91;20.45
32237;BME280;18726;44.732;10.550;2022-11-06T09:40:53;101388.38;;;41.16;19.42
32237;BME280;18726;44.732;10.550;2022-11-06T09:47:33;101393.25;;;42.40;19.05
32237;BME280;18726;44.732;10.550;2022-11-06T09:50:46;101387.19;;;41.83;20.34
32237;BME280;18726;44.732;10.550;2022-11-06T09:54:09;101381.53;;;39.56;20.30
32237;BME280;18726;44.732;10.550;2022-11-06T10:00:30;101373.50;;;38.59;22.14
32237;BME280;18726;44.732;10.550;2022-11-06T10:03:54;101362.78;;;37.77;21.79
32237;BME280;18726;44.732;10.550;2022-11-06T10:06:58;101351.69;;;38.37;22.65
32237;BME280;18726;44.732;10.550;2022-11-06T10:10:05;101348.78;;;38.42;22.54
32237;BME280;18726;44.732;10.550;2022-11-06T10:20:38;101337.63;;;34.85;25.27
32237;BME280;18726;44.732;10.550;2022-11-06T10:23:46;101347.50;;;33.33;28.03
32237;BME280;18726;44.732;10.550;2022-11-06T10:26:55;101350.16;;;32.25;29.19
32237;BME280;18726;44.732;10.550;2022-11-06T10:30:04;101336.78;;;31.30;30.81
32237;BME280;18726;44.732;10.550;2022-11-06T10:33:22;101339.41;;;30.73;31.96
32237;BME280;18726;44.732;10.550;2022-11-06T10:36:35;101330.00;;;29.84;32.23
32237;BME280;18726;44.732;10.550;2022-11-06T10:39:43;101324.94;;;29.52;31.95
32237;BME280;18726;44.732;10.550;2022-11-06T10:46:24;101313.22;;;29.35;33.01
32237;BME280;18726;44.732;10.550;2022-11-06T10:50:09;101303.81;;;29.20;34.20
32237;BME280;18726;44.732;10.550;2022-11-06T10:53:18;101292.72;;;28.54;32.36
32237;BME280;18726;44.732;10.550;2022-11-06T10:56:48;101305.19;;;28.41;35.44
32237;BME280;18726;44.732;10.550;2022-11-06T10:59:56;101301.13;;;28.20;36.65
32237;BME280;18726;44.732;10.550;2022-11-06T11:03:01;101311.00;;;27.65;37.79
32237;BME280;18726;44.732;10.550;2022-11-06T11:06:05;101305.34;;;26.88;38.40
32237;BME280;18726;44.732;10.550;2022-11-06T11:12:30;101303.56;;;26.82;40.80
32237;BME280;18726;44.732;10.550;2022-11-06T11:15:43;101306.31;;;26.69;38.94
32237;BME280;18726;44.732;10.550;2022-11-06T11:18:49;101294.84;;;26.38;39.75
32237;BME280;18726;44.732;10.550;2022-11-06T11:21:56;101293.25;;;26.08;40.57
32237;BME280;18726;44.732;10.550;2022-11-06T11:25:05;101288.41;;;25.80;42.83
32237;BME280;18726;44.732;10.550;2022-11-06T11:28:39;101282.31;;;25.52;40.87
32237;BME280;18726;44.732;10.550;2022-11-06T11:31:50;101283.19;;;25.33;43.80
32237;BME280;18726;44.732;10.550;2022-11-06T11:34:55;101273.72;;;25.31;42.39
32237;BME280;18726;44.732;10.550;2022-11-06T11:38:09;101277.78;;;25.26;43.12
32237;BME280;18726;44.732;10.550;2022-11-06T11:41:24;101268.94;;;25.31;44.45
32237;BME280;18726;44.732;10.550;2022-11-06T11:44:28;101262.75;;;25.23;43.19
32237;BME280;18726;44.732;10.550;2022-11-06T11:47:46;101253.25;;;24.85;42.90
32237;BME280;18726;44.732;10.550;2022-11-06T11:50:50;101257.13;;;24.71;44.94
32237;BME280;18726;44.732;10.550;2022-11-06T11:54:33;101254.66;;;24.57;47.04
32237;BME280;18726;44.732;10.550;2022-11-06T11:57:29;101261.16;;;24.50;46.69
32237;BME280;18726;44.732;10.550;2022-11-06T12:00:32;101257.63;;;24.27;45.96
32237;BME280;18726;44.732;10.550;2022-11-06T12:03:42;101253.00;;;24.20;47.88
32237;BME280;18726;44.732;10.550;2022-11-06T12:06:53;101255.34;;;24.21;47.60
32237;BME280;18726;44.732;10.550;2022-11-06T12:10:02;101246.66;;;24.19;46.88
32237;BME280;18726;44.732;10.550;2022-11-06T12:13:20;101246.63;;;24.00;45.47
32237;BME280;18726;44.732;10.550;2022-11-06T12:16:24;101238.28;;;23.56;48.65
32237;BME280;18726;44.732;10.550;2022-11-06T12:19:31;101227.19;;;23.56;49.89
32237;BME280;18726;44.732;10.550;2022-11-06T12:22:40;101231.44;;;23.38;51.44
32237;BME280;18726;44.732;10.550;2022-11-06T12:25:57;101237.63;;;23.22;49.32
32237;BME280;18726;44.732;10.550;2022-11-06T12:29:12;101231.09;;;23.09;54.63
32237;BME280;18726;44.732;10.550;2022-11-06T12:32:36;101230.34;;;23.05;53.77
32237;BME280;18726;44.732;10.550;2022-11-06T12:36:00;101218.53;;;23.01;50.64
32237;BME280;18726;44.732;10.550;2022-11-06T12:39:12;101213.81;;;22.98;55.23
32237;BME280;18726;44.732;10.550;2022-11-06T12:42:18;101214.28;;;22.93;52.63
32237;BME280;18726;44.732;10.550;2022-11-06T12:45:42;101214.28;;;22.93;54.78
32237;BME280;18726;44.732;10.550;2022-11-06T12:56:17;101204.59;;;22.16;55.37
32237;BME280;18726;44.732;10.550;2022-11-06T13:03:18;101192.28;;;21.80;57.32
32237;BME280;18726;44.732;10.550;2022-11-06T13:16:28;101194.06;;;21.63;54.32
32237;BME280;18726;44.732;10.550;2022-11-06T13:19:44;101179.03;;;21.64;63.23
32237;BME280;18726;44.732;10.550;2022-11-06T13:23:05;101176.97;;;21.72;60.13
32237;BME280;18726;44.732;10.550;2022-11-06T13:26:23;101182.16;;;21.66;59.25
32237;BME280;18726;44.732;10.550;2022-11-06T13:29:28;101188.63;;;21.52;64.07
32237;BME280;18726;44.732;10.550;2022-11-06T13:32:34;101188.66;;;21.45;64.45
32237;BME280;18726;44.732;10.550;2022-11-06T13:35:41;101188.38;;;21.36;64.64
32237;BME280;18726;44.732;10.550;2022-11-06T13:42:30;101183.34;;;21.17;68.84
32237;BME280;18726;44.732;10.550;2022-11-06T13:45:47;101183.38;;;21.10;69.90
32237;BME280;18726;44.732;10.550;2022-11-06T13:52:11;101168.94;;;20.92;68.91
32237;BME280;18726;44.732;10.550;2022-11-06T13:55:35;101169.38;;;20.83;70.34
32237;BME280;18726;44.732;10.550;2022-11-06T14:05:59;101172.69;;;20.56;68.45
32237;BME280;18726;44.732;10.550;2022-11-06T14:09:06;101166.47;;;20.38;63.10
32237;BME280;18726;44.732;10.550;2022-11-06T14:12:16;101160.97;;;20.24;68.29
32237;BME280;18726;44.732;10.550;2022-11-06T14:15:35;101158.59;;;20.30;72.21
32237;BME280;18726;44.732;10.550;2022-11-06T14:18:40;101156.63;;;20.41;74.92
32237;BME280;18726;44.732;10.550;2022-11-06T14:28:32;101146.19;;;19.65;70.06
32237;BME280;18726;44.732;10.550;2022-11-06T14:32:08;101150.13;;;19.74;76.30
32237;BME280;18726;44.732;10.550;2022-11-06T14:38:33;101163.47;;;19.90;79.05
32237;BME280;18726;44.732;10.550;2022-11-06T14:44:45;101167.38;;;19.96;80.95
32237;BME280;18726;44.732;10.550;2022-11-06T14:47:53;101157.94;;;19.97;79.81
32237;BME280;18726;44.732;10.550;2022-11-06T14:51:01;101164.22;;;19.94;82.69
32237;BME280;18726;44.732;10.550;2022-11-06T14:54:19;101161.53;;;19.87;83.56
32237;BME280;18726;44.732;10.550;2022-11-06T14:57:44;101163.50;;;19.72;82.71
32237;BME280;18726;44.732;10.550;2022-11-06T15:00:55;101155.66;;;19.60;85.74
32237;BME280;18726;44.732;10.550;2022-11-06T15:04:05;101151.31;;;19.48;88.62
32237;BME280;18726;44.732;10.550;2022-11-06T15:07:31;101168.63;;;19.35;89.21
32237;BME280;18726;44.732;10.550;2022-11-06T15:13:44;101159.19;;;19.07;91.25
32237;BME280;18726;44.732;10.550;2022-11-06T15:16:50;101158.78;;;18.95;90.76
32237;BME280;18726;44.732;10.550;2022-11-06T15:20:04;101158.75;;;18.80;92.03
32237;BME280;18726;44.732;10.550;2022-11-06T15:23:18;101160.72;;;18.69;94.80
32237;BME280;18726;44.732;10.550;2022-11-06T15:26:36;101154.78;;;18.60;97.22
32237;BME280;18726;44.732;10.550;2022-11-06T15:29:44;101152.38;;;18.51;90.88
32237;BME280;18726;44.732;10.550;2022-11-06T15:32:51;101152.34;;;18.41;87.29
32237;BME280;18726;44.732;10.550;2022-11-06T15:35:58;101159.00;;;18.33;98.96
32237;BME280;18726;44.732;10.550;2022-11-06T15:39:41;101148.34;;;18.17;100.00
32237;BME280;18726;44.732;10.550;2022-11-06T15:42:51;101153.75;;;18.03;100.00
32237;BME280;18726;44.732;10.550;2022-11-06T15:46:15;101147.41;;;17.84;100.00
32237;BME280;18726;44.732;10.550;2022-11-06T15:49:20;101154.75;;;17.70;100.00
32237;BME280;18726;44.732;10.550;2022-11-06T15:52:25;101162.06;;;17.51;100.00
32237;BME280;18726;44.732;10.550;2022-11-06T15:55:32;101161.13;;;17.33;100.00
32237;BME280;18726;44.732;10.550;2022-11-06T15:58:37;101164.16;;;17.17;100.00
32237;BME280;18726;44.732;10.550;2022-11-06T16:01:46;101162.47;;;17.06;100.00
32237;BME280;18726;44.732;10.550;2022-11-06T16:04:50;101156.84;;;16.92;100.00
32237;BME280;18726;44.732;10.550;2022-11-06T16:07:55;101159.03;;;16.75;100.00
32237;BME280;18726;44.732;10.550;2022-11-06T16:11:00;101169.00;;;16.57;100.00
32237;BME280;18726;44.732;10.550;2022-11-06T16:14:06;101168.50;;;16.48;100.00
32237;BME280;18726;44.732;10.550;2022-11-06T16:17:16;101169.56;;;16.36;100.00
32237;BME280;18726;44.732;10.550;2022-11-06T16:20:20;101167.88;;;16.28;100.00
32237;BME280;18726;44.732;10.550;2022-11-06T16:23:49;101175.47;;;16.08;100.00
32237;BME280;18726;44.732;10.550;2022-11-06T16:26:54;101172.63;;;16.01;100.00
32237;BME280;18726;44.732;10.550;2022-11-06T16:29:59;101176.00;;;15.91;100.00
32237;BME280;18726;44.732;10.550;2022-11-06T16:33:16;101169.72;;;15.87;100.00
32237;BME280;18726;44.732;10.550;2022-11-06T16:36:21;101166.44;;;15.78;100.00
32237;BME280;18726;44.732;10.550;2022-11-06T16:39:39;101162.44;;;15.72;100.00
32237;BME280;18726;44.732;10.550;2022-11-06T16:42:59;101169.28;;;15.59;100.00
32237;BME280;18726;44.732;10.550;2022-11-06T16:46:05;101162.88;;;15.51;100.00
32237;BME280;18726;44.732;10.550;2022-11-06T16:49:33;101179.38;;;15.54;100.00
32237;BME280;18726;44.732;10.550;2022-11-06T16:52:37;101178.81;;;15.45;100.00
32237;BME280;18726;44.732;10.550;2022-11-06T16:55:41;101183.03;;;15.39;100.00
32237;BME280;18726;44.732;10.550;2022-11-06T16:58:50;101183.81;;;15.40;100.00
32237;BME280;18726;44.732;10.550;2022-11-06T17:01:55;101181.63;;;15.03;100.00
32237;BME280;18726;44.732;10.550;2022-11-06T17:05:12;101171.34;;;14.55;100.00
32237;BME280;18726;44.732;10.550;2022-11-06T17:11:20;101175.69;;;14.01;100.00
32237;BME280;18726;44.732;10.550;2022-11-06T17:14:26;101177.28;;;14.02;100.00
32237;BME280;18726;44.732;10.550;2022-11-06T17:17:30;101172.09;;;13.97;100.00
32237;BME280;18726;44.732;10.550;2022-11-06T17:20:34;101179.09;;;13.79;100.00
32237;BME280;18726;44.732;10.550;2022-11-06T17:23:39;101183.66;;;13.56;100.00
32237;BME280;18726;44.732;10.550;2022-11-06T17:26:46;101180.19;;;13.59;100.00
32237;BME280;18726;44.732;10.550;2022-11-06T17:29:50;101185.81;;;13.66;100.00
32237;BME280;18726;44.732;10.550;2022-11-06T17:32:53;101181.75;;;13.60;100.00
32237;BME280;18726;44.732;10.550;2022-11-06T17:35:57;101181.34;;;13.42;100.00
32237;BME280;18726;44.732;10.550;2022-11-06T17:39:00;101174.16;;;13.18;100.00
32237;BME280;18726;44.732;10.550;2022-11-06T17:42:04;101177.34;;;13.08;100.00
32237;BME280;18726;44.732;10.550;2022-11-06T17:45:08;101179.72;;;13.09;100.00
32237;BME280;18726;44.732;10.550;2022-11-06T17:48:12;101183.91;;;13.19;100.00
32237;BME280;18726;44.732;10.550;2022-11-06T17:51:15;101202.09;;;13.15;100.00
32237;BME280;18726;44.732;10.550;2022-11-06T17:54:37;101201.91;;;13.08;100.00
32237;BME280;18726;44.732;10.550;2022-11-06T17:57:42;101209.09;;;13.00;100.00
32237;BME280;18726;44.732;10.550;2022-11-06T18:00:46;101200.56;;;13.02;100.00
32237;BME280;18726;44.732;10.550;2022-11-06T18:03:50;101202.44;;;12.98;100.00
32237;BME280;18726;44.732;10.550;2022-11-06T18:06:53;101212.44;;;12.94;100.00
32237;BME280;18726;44.732;10.550;2022-11-06T18:09:57;101208.63;;;12.82;100.00
32237;BME280;18726;44.732;10.550;2022-11-06T18:13:01;101212.56;;;12.69;100.00
32237;BME280;18726;44.732;10.550;2022-11-06T18:16:13;101210.53;;;12.66;100.00